sensor_id;sensor_type;location;lat;lon;timestamp;pressure;altitude;pressure_sealevel;temperature;humidity
49759;BME280;35654;46.080;11.118;2023-03-18T00:02:08;99667.56;;;7.76;58.40
49759;BME280;35654;46.080;11.118;2023-03-18T00:04:34;99666.72;;;7.71;57.94
49759;BME280;35654;46.080;11.118;2023-03-18T00:07:02;99676.25;;;7.63;58.34
49759;BME280;35654;46.080;11.118;2023-03-18T00:09:28;99666.72;;;7.60;58.47
49759;BME280;35654;46.080;11.118;2023-03-18T00:11:55;99663.47;;;7.63;58.39
49759;BME280;35654;46.080;11.118;2023-03-18T00:14:22;99660.44;;;7.55;59.69
49759;BME280;35654;46.080;11.118;2023-03-18T00:16:49;99662.34;;;7.54;59.69
49759;BME280;35654;46.080;11.118;2023-03-18T00:19:16;99664.25;;;7.54;59.31
49759;BME280;35654;46.080;11.118;2023-03-18T00:21:44;99672.41;;;7.54;58.77
49759;BME280;35654;46.080;11.118;2023-03-18T00:24:10;99669.97;;;7.52;58.78
49759;BME280;35654;46.080;11.118;2023-03-18T00:26:37;99667.22;;;7.42;59.74
49759;BME280;35654;46.080;11.118;2023-03-18T00:29:04;99672.66;;;7.42;59.38
49759;BME280;35654;46.080;11.118;2023-03-18T00:31:31;99669.34;;;7.35;59.76
49759;BME280;35654;46.080;11.118;2023-03-18T00:33:57;99669.06;;;7.27;59.54
49759;BME280;35654;46.080;11.118;2023-03-18T00:36:24;99663.34;;;7.28;59.54
49759;BME280;35654;46.080;11.118;2023-03-18T00:38:52;99663.06;;;7.25;59.70
49759;BME280;35654;46.080;11.118;2023-03-18T00:41:26;99668.19;;;7.16;60.29
49759;BME280;35654;46.080;11.118;2023-03-18T00:43:53;99663.81;;;7.15;60.24
49759;BME280;35654;46.080;11.118;2023-03-18T00:46:35;99663.56;;;7.17;60.86
49759;BME280;35654;46.080;11.118;2023-03-18T00:49:03;99660.00;;;7.11;61.78
49759;BME280;35654;46.080;11.118;2023-03-18T00:51:31;99662.97;;;7.04;62.19
49759;BME280;35654;46.080;11.118;2023-03-18T00:53:58;99661.59;;;7.02;62.42
49759;BME280;35654;46.080;11.118;2023-03-18T00:56:27;99664.03;;;7.03;62.66
49759;BME280;35654;46.080;11.118;2023-03-18T00:58:54;99655.88;;;7.03;63.07
49759;BME280;35654;46.080;11.118;2023-03-18T01:01:22;99656.41;;;7.00;63.33
49759;BME280;35654;46.080;11.118;2023-03-18T01:03:49;99647.41;;;6.95;63.81
49759;BME280;35654;46.080;11.118;2023-03-18T01:06:19;99656.34;;;6.90;64.59
49759;BME280;35654;46.080;11.118;2023-03-18T01:08:48;99647.88;;;6.87;64.52
49759;BME280;35654;46.080;11.118;2023-03-18T01:11:14;99641.06;;;6.84;65.03
49759;BME280;35654;46.080;11.118;2023-03-18T01:13:41;99650.31;;;6.78;65.36
49759;BME280;35654;46.080;11.118;2023-03-18T01:16:07;99651.94;;;6.79;65.41
49759;BME280;35654;46.080;11.118;2023-03-18T01:18:33;99638.31;;;6.79;65.13
49759;BME280;35654;46.080;11.118;2023-03-18T01:21:00;99646.47;;;6.79;65.33
49759;BME280;35654;46.080;11.118;2023-03-18T01:23:27;99635.59;;;6.79;65.27
49759;BME280;35654;46.080;11.118;2023-03-18T01:25:55;99639.66;;;6.77;65.59
49759;BME280;35654;46.080;11.118;2023-03-18T01:28:23;99642.16;;;6.78;65.11
49759;BME280;35654;46.080;11.118;2023-03-18T01:30:49;99634.22;;;6.77;64.60
49759;BME280;35654;46.080;11.118;2023-03-18T01:33:15;99628.75;;;6.72;64.20
49759;BME280;35654;46.080;11.118;2023-03-18T01:35:43;99625.19;;;6.66;65.23
49759;BME280;35654;46.080;11.118;2023-03-18T01:38:12;99626.78;;;6.62;65.36
49759;BME280;35654;46.080;11.118;2023-03-18T01:40:39;99623.25;;;6.62;66.21
49759;BME280;35654;46.080;11.118;2023-03-18T01:48:53;99614.56;;;6.65;65.34
49759;BME280;35654;46.080;11.118;2023-03-18T01:51:19;99617.03;;;6.66;64.99
49759;BME280;35654;46.080;11.118;2023-03-18T01:53:47;99617.56;;;6.68;64.84
49759;BME280;35654;46.080;11.118;2023-03-18T01:56:13;99609.94;;;6.65;65.61
49759;BME280;35654;46.080;11.118;2023-03-18T01:58:47;99612.94;;;6.64;65.79
49759;BME280;35654;46.080;11.118;2023-03-18T02:03:59;99610.59;;;6.40;66.00
49759;BME280;35654;46.080;11.118;2023-03-18T02:06:27;99611.88;;;6.28;66.65
49759;BME280;35654;46.080;11.118;2023-03-18T02:08:54;99609.16;;;6.28;67.09
49759;BME280;35654;46.080;11.118;2023-03-18T02:11:22;99607.22;;;6.23;67.18
49759;BME280;35654;46.080;11.118;2023-03-18T02:13:49;99602.81;;;6.17;67.34
49759;BME280;35654;46.080;11.118;2023-03-18T02:16:25;99606.91;;;6.20;67.34
49759;BME280;35654;46.080;11.118;2023-03-18T02:18:53;99607.72;;;6.20;67.34
49759;BME280;35654;46.080;11.118;2023-03-18T02:21:27;99594.13;;;6.20;67.13
49759;BME280;35654;46.080;11.118;2023-03-18T02:24:15;99595.00;;;6.26;67.18
49759;BME280;35654;46.080;11.118;2023-03-18T02:26:57;99586.84;;;6.26;67.44
49759;BME280;35654;46.080;11.118;2023-03-18T02:29:25;99594.16;;;6.25;66.93
49759;BME280;35654;46.080;11.118;2023-03-18T02:31:53;99588.19;;;6.23;67.05
49759;BME280;35654;46.080;11.118;2023-03-18T02:34:21;99592.53;;;6.19;66.77
49759;BME280;35654;46.080;11.118;2023-03-18T02:36:49;99596.50;;;6.12;67.26
49759;BME280;35654;46.080;11.118;2023-03-18T02:39:16;99593.56;;;6.13;66.94
49759;BME280;35654;46.080;11.118;2023-03-18T02:41:43;99593.28;;;6.15;66.53
49759;BME280;35654;46.080;11.118;2023-03-18T02:44:11;99601.44;;;6.15;64.78
49759;BME280;35654;46.080;11.118;2023-03-18T02:46:51;99591.59;;;6.09;64.79
49759;BME280;35654;46.080;11.118;2023-03-18T02:49:20;99597.03;;;6.09;65.25
49759;BME280;35654;46.080;11.118;2023-03-18T02:51:48;99599.19;;;6.07;65.99
49759;BME280;35654;46.080;11.118;2023-03-18T02:54:17;99592.09;;;6.01;66.17
49759;BME280;35654;46.080;11.118;2023-03-18T02:56:44;99585.03;;;6.00;66.09
49759;BME280;35654;46.080;11.118;2023-03-18T02:59:11;99587.22;;;6.03;66.06
49759;BME280;35654;46.080;11.118;2023-03-18T03:01:39;99586.72;;;6.06;66.06
49759;BME280;35654;46.080;11.118;2023-03-18T03:04:05;99587.78;;;6.05;66.24
49759;BME280;35654;46.080;11.118;2023-03-18T03:06:33;99593.69;;;5.97;66.26
49759;BME280;35654;46.080;11.118;2023-03-18T03:09:00;99588.22;;;5.92;66.71
49759;BME280;35654;46.080;11.118;2023-03-18T03:11:27;99585.50;;;5.92;66.76
49759;BME280;35654;46.080;11.118;2023-03-18T03:13:54;99582.72;;;5.86;67.11
49759;BME280;35654;46.080;11.118;2023-03-18T03:16:21;99583.16;;;5.78;67.39
49759;BME280;35654;46.080;11.118;2023-03-18T03:18:48;99591.31;;;5.78;67.87
49759;BME280;35654;46.080;11.118;2023-03-18T03:21:16;99588.91;;;5.82;67.59
49759;BME280;35654;46.080;11.118;2023-03-18T03:23:43;99595.94;;;5.78;67.72
49759;BME280;35654;46.080;11.118;2023-03-18T03:26:09;99585.44;;;5.86;67.08
49759;BME280;35654;46.080;11.118;2023-03-18T03:28:36;99600.47;;;5.94;67.12
49759;BME280;35654;46.080;11.118;2023-03-18T03:31:02;99596.41;;;5.97;66.39
49759;BME280;35654;46.080;11.118;2023-03-18T03:33:29;99598.63;;;6.00;66.23
49759;BME280;35654;46.080;11.118;2023-03-18T03:35:55;99599.97;;;5.97;65.85
49759;BME280;35654;46.080;11.118;2023-03-18T03:38:24;99606.16;;;5.93;66.47
49759;BME280;35654;46.080;11.118;2023-03-18T03:40:50;99598.41;;;5.79;67.18
49759;BME280;35654;46.080;11.118;2023-03-18T03:43:18;99602.19;;;5.78;67.18
49759;BME280;35654;46.080;11.118;2023-03-18T03:45:43;99600.06;;;5.80;67.17
49759;BME280;35654;46.080;11.118;2023-03-18T03:48:10;99601.75;;;5.86;66.88
49759;BME280;35654;46.080;11.118;2023-03-18T03:50:37;99600.41;;;5.89;66.55
49759;BME280;35654;46.080;11.118;2023-03-18T03:53:04;99611.84;;;5.91;66.76
49759;BME280;35654;46.080;11.118;2023-03-18T03:55:31;99602.06;;;5.90;67.14
49759;BME280;35654;46.080;11.118;2023-03-18T03:57:59;99600.69;;;5.88;67.36
49759;BME280;35654;46.080;11.118;2023-03-18T04:00:32;99603.94;;;5.90;67.71
49759;BME280;35654;46.080;11.118;2023-03-18T04:02:59;99602.91;;;5.96;67.77
49759;BME280;35654;46.080;11.118;2023-03-18T04:05:25;99599.97;;;5.97;67.68
49759;BME280;35654;46.080;11.118;2023-03-18T04:07:52;99603.13;;;5.89;67.93
49759;BME280;35654;46.080;11.118;2023-03-18T04:10:19;99595.50;;;5.86;67.96
49759;BME280;35654;46.080;11.118;2023-03-18T04:12:46;99600.13;;;5.85;67.83
49759;BME280;35654;46.080;11.118;2023-03-18T04:15:13;99602.00;;;5.85;67.58
49759;BME280;35654;46.080;11.118;2023-03-18T04:17:40;99599.03;;;5.86;67.96
49759;BME280;35654;46.080;11.118;2023-03-18T04:20:07;99601.00;;;5.91;67.89
49759;BME280;35654;46.080;11.118;2023-03-18T04:22:34;99600.41;;;5.89;67.80
49759;BME280;35654;46.080;11.118;2023-03-18T04:25:02;99597.44;;;5.91;67.92
49759;BME280;35654;46.080;11.118;2023-03-18T04:27:28;99592.84;;;5.91;67.41
49759;BME280;35654;46.080;11.118;2023-03-18T04:29:55;99596.59;;;5.85;67.40
49759;BME280;35654;46.080;11.118;2023-03-18T04:32:21;99597.56;;;5.79;68.02
49759;BME280;35654;46.080;11.118;2023-03-18T04:34:48;99595.38;;;5.76;68.12
49759;BME280;35654;46.080;11.118;2023-03-18T04:37:14;99599.94;;;5.70;68.30
49759;BME280;35654;46.080;11.118;2023-03-18T04:39:46;99604.00;;;5.68;68.42
49759;BME280;35654;46.080;11.118;2023-03-18T04:42:12;99603.75;;;5.69;68.34
49759;BME280;35654;46.080;11.118;2023-03-18T04:44:39;99599.06;;;5.65;68.73
49759;BME280;35654;46.080;11.118;2023-03-18T04:47:04;99596.91;;;5.67;68.95
49759;BME280;35654;46.080;11.118;2023-03-18T04:49:30;99601.59;;;5.71;68.75
49759;BME280;35654;46.080;11.118;2023-03-18T04:51:56;99593.75;;;5.75;68.66
49759;BME280;35654;46.080;11.118;2023-03-18T04:54:23;99591.03;;;5.75;68.73
49759;BME280;35654;46.080;11.118;2023-03-18T04:56:49;99589.94;;;5.76;68.97
49759;BME280;35654;46.080;11.118;2023-03-18T04:59:16;99593.78;;;5.80;68.47
49759;BME280;35654;46.080;11.118;2023-03-18T05:01:44;99590.78;;;5.76;68.74
49759;BME280;35654;46.080;11.118;2023-03-18T05:04:09;99588.06;;;5.76;69.06
49759;BME280;35654;46.080;11.118;2023-03-18T05:06:34;99579.84;;;5.71;68.59
49759;BME280;35654;46.080;11.118;2023-03-18T05:09:01;99586.91;;;5.72;69.06
49759;BME280;35654;46.080;11.118;2023-03-18T05:11:29;99582.03;;;5.69;69.53
49759;BME280;35654;46.080;11.118;2023-03-18T05:13:54;99574.63;;;5.65;69.46
49759;BME280;35654;46.080;11.118;2023-03-18T05:16:20;99589.53;;;5.62;69.33
49759;BME280;35654;46.080;11.118;2023-03-18T05:18:46;99588.72;;;5.62;69.69
49759;BME280;35654;46.080;11.118;2023-03-18T05:21:12;99590.09;;;5.64;69.42
49759;BME280;35654;46.080;11.118;2023-03-18T05:23:38;99594.97;;;5.62;69.59
49759;BME280;35654;46.080;11.118;2023-03-18T05:26:04;99584.66;;;5.64;69.65
49759;BME280;35654;46.080;11.118;2023-03-18T05:28:30;99589.59;;;5.67;69.44
49759;BME280;35654;46.080;11.118;2023-03-18T05:30:55;99594.50;;;5.70;69.58
49759;BME280;35654;46.080;11.118;2023-03-18T05:33:20;99594.50;;;5.70;69.58
49759;BME280;35654;46.080;11.118;2023-03-18T05:35:46;99579.53;;;5.68;69.31
49759;BME280;35654;46.080;11.118;2023-03-18T05:38:11;99589.22;;;5.59;70.03
49759;BME280;35654;46.080;11.118;2023-03-18T05:40:37;99583.56;;;5.60;70.13
49759;BME280;35654;46.080;11.118;2023-03-18T05:43:02;99587.69;;;5.68;69.60
49759;BME280;35654;46.080;11.118;2023-03-18T05:45:29;99582.06;;;5.74;69.35
49759;BME280;35654;46.080;11.118;2023-03-18T05:47:56;99579.06;;;5.76;69.51
49759;BME280;35654;46.080;11.118;2023-03-18T05:50:33;99590.81;;;5.81;69.59
49759;BME280;35654;46.080;11.118;2023-03-18T05:53:01;99593.53;;;5.81;69.81
49759;BME280;35654;46.080;11.118;2023-03-18T05:55:28;99596.00;;;5.83;70.24
49759;BME280;35654;46.080;11.118;2023-03-18T05:57:55;99602.84;;;5.85;70.25
49759;BME280;35654;46.080;11.118;2023-03-18T06:00:21;99599.03;;;5.86;70.79
49759;BME280;35654;46.080;11.118;2023-03-18T06:02:49;99599.50;;;5.83;70.52
49759;BME280;35654;46.080;11.118;2023-03-18T06:05:18;99598.06;;;5.71;70.40
49759;BME280;35654;46.080;11.118;2023-03-18T06:07:43;99597.75;;;5.67;70.85
49759;BME280;35654;46.080;11.118;2023-03-18T06:10:09;99594.81;;;5.74;71.13
49759;BME280;35654;46.080;11.118;2023-03-18T06:12:35;99600.59;;;5.82;70.50
49759;BME280;35654;46.080;11.118;2023-03-18T06:15:01;99599.34;;;5.90;69.80
49759;BME280;35654;46.080;11.118;2023-03-18T06:17:29;99606.69;;;5.95;69.94
49759;BME280;35654;46.080;11.118;2023-03-18T06:19:55;99609.50;;;6.00;69.58
49759;BME280;35654;46.080;11.118;2023-03-18T06:22:22;99608.03;;;5.92;69.18
49759;BME280;35654;46.080;11.118;2023-03-18T06:24:48;99610.00;;;5.97;69.61
49759;BME280;35654;46.080;11.118;2023-03-18T06:27:15;99615.47;;;6.02;69.54
49759;BME280;35654;46.080;11.118;2023-03-18T06:29:41;99613.94;;;6.11;69.21
49759;BME280;35654;46.080;11.118;2023-03-18T06:32:09;99619.44;;;6.21;68.58
49759;BME280;35654;46.080;11.118;2023-03-18T06:34:35;99615.63;;;6.17;68.36
49759;BME280;35654;46.080;11.118;2023-03-18T06:37:01;99621.81;;;6.12;68.83
49759;BME280;35654;46.080;11.118;2023-03-18T06:39:26;99622.59;;;6.08;68.63
49759;BME280;35654;46.080;11.118;2023-03-18T06:41:52;99616.81;;;5.99;69.42
49759;BME280;35654;46.080;11.118;2023-03-18T06:44:19;99617.06;;;5.98;69.33
49759;BME280;35654;46.080;11.118;2023-03-18T06:46:46;99617.69;;;6.05;69.27
49759;BME280;35654;46.080;11.118;2023-03-18T06:49:12;99620.47;;;6.15;68.75
49759;BME280;35654;46.080;11.118;2023-03-18T06:51:39;99621.34;;;6.25;68.54
49759;BME280;35654;46.080;11.118;2023-03-18T06:54:04;99618.19;;;6.33;68.49
49759;BME280;35654;46.080;11.118;2023-03-18T06:56:30;99615.75;;;6.37;67.83
49759;BME280;35654;46.080;11.118;2023-03-18T06:58:57;99626.38;;;6.38;67.97
49759;BME280;35654;46.080;11.118;2023-03-18T07:01:23;99624.22;;;6.45;67.37
49759;BME280;35654;46.080;11.118;2023-03-18T07:03:48;99610.41;;;6.52;67.23
49759;BME280;35654;46.080;11.118;2023-03-18T07:06:13;99613.09;;;6.47;67.55
49759;BME280;35654;46.080;11.118;2023-03-18T07:08:39;99616.69;;;6.58;67.57
49759;BME280;35654;46.080;11.118;2023-03-18T07:11:04;99617.38;;;6.80;66.59
49759;BME280;35654;46.080;11.118;2023-03-18T07:13:31;99623.44;;;6.97;65.52
49759;BME280;35654;46.080;11.118;2023-03-18T07:15:56;99620.97;;;6.95;65.14
49759;BME280;35654;46.080;11.118;2023-03-18T07:18:23;99621.28;;;6.99;65.22
49759;BME280;35654;46.080;11.118;2023-03-18T07:20:48;99623.69;;;6.95;65.00
49759;BME280;35654;46.080;11.118;2023-03-18T07:23:13;99627.25;;;7.01;65.23
49759;BME280;35654;46.080;11.118;2023-03-18T07:25:38;99629.75;;;7.08;65.10
49759;BME280;35654;46.080;11.118;2023-03-18T07:28:04;99628.16;;;7.17;64.76
49759;BME280;35654;46.080;11.118;2023-03-18T07:30:29;99638.25;;;7.21;64.92
49759;BME280;35654;46.080;11.118;2023-03-18T07:32:55;99636.97;;;7.44;63.74
49759;BME280;35654;46.080;11.118;2023-03-18T07:35:20;99637.78;;;7.39;63.24
49759;BME280;35654;46.080;11.118;2023-03-18T07:37:46;99629.63;;;7.44;63.21
49759;BME280;35654;46.080;11.118;2023-03-18T07:40:11;99639.47;;;7.71;61.41
49759;BME280;35654;46.080;11.118;2023-03-18T07:42:37;99630.00;;;8.13;59.35
49759;BME280;35654;46.080;11.118;2023-03-18T07:45:06;99622.13;;;8.42;57.58
49759;BME280;35654;46.080;11.118;2023-03-18T07:47:32;99622.66;;;8.44;56.95
49759;BME280;35654;46.080;11.118;2023-03-18T07:49:57;99617.75;;;8.51;56.38
49759;BME280;35654;46.080;11.118;2023-03-18T07:52:23;99617.97;;;8.60;56.28
49759;BME280;35654;46.080;11.118;2023-03-18T07:54:48;99630.56;;;8.51;56.25
49759;BME280;35654;46.080;11.118;2023-03-18T07:57:14;99617.69;;;8.71;56.56
49759;BME280;35654;46.080;11.118;2023-03-18T07:59:39;99616.53;;;8.98;55.52
49759;BME280;35654;46.080;11.118;2023-03-18T08:02:05;99618.91;;;9.14;55.11
49759;BME280;35654;46.080;11.118;2023-03-18T08:04:32;99618.06;;;9.19;54.52
49759;BME280;35654;46.080;11.118;2023-03-18T08:06:57;99621.03;;;9.27;54.19
49759;BME280;35654;46.080;11.118;2023-03-18T08:09:23;99630.47;;;8.91;53.85
49759;BME280;35654;46.080;11.118;2023-03-18T08:11:48;99631.38;;;8.61;54.66
49759;BME280;35654;46.080;11.118;2023-03-18T08:14:14;99628.66;;;8.56;54.67
49759;BME280;35654;46.080;11.118;2023-03-18T08:16:39;99637.06;;;8.75;54.49
49759;BME280;35654;46.080;11.118;2023-03-18T08:19:04;99633.16;;;8.96;54.04
49759;BME280;35654;46.080;11.118;2023-03-18T08:21:30;99627.97;;;9.05;53.78
49759;BME280;35654;46.080;11.118;2023-03-18T08:23:55;99637.28;;;8.99;54.24
49759;BME280;35654;46.080;11.118;2023-03-18T08:26:21;99625.97;;;9.25;53.20
49759;BME280;35654;46.080;11.118;2023-03-18T08:28:46;99627.28;;;9.38;52.92
49759;BME280;35654;46.080;11.118;2023-03-18T08:31:11;99621.13;;;9.61;51.97
49759;BME280;35654;46.080;11.118;2023-03-18T08:33:38;99628.91;;;9.88;51.50
49759;BME280;35654;46.080;11.118;2023-03-18T08:36:03;99625.38;;;10.26;50.17
49759;BME280;35654;46.080;11.118;2023-03-18T08:38:29;99624.63;;;10.16;49.76
49759;BME280;35654;46.080;11.118;2023-03-18T08:40:54;99624.41;;;10.41;49.27
49759;BME280;35654;46.080;11.118;2023-03-18T08:43:20;99630.19;;;10.68;48.82
49759;BME280;35654;46.080;11.118;2023-03-18T08:45:49;99633.53;;;11.13;47.25
49759;BME280;35654;46.080;11.118;2023-03-18T08:48:15;99628.63;;;11.09;47.70
49759;BME280;35654;46.080;11.118;2023-03-18T08:50:40;99626.47;;;11.30;47.05
49759;BME280;35654;46.080;11.118;2023-03-18T08:53:06;99612.75;;;11.30;46.74
49759;BME280;35654;46.080;11.118;2023-03-18T08:55:32;99610.94;;;11.21;46.27
49759;BME280;35654;46.080;11.118;2023-03-18T08:57:58;99607.28;;;11.30;45.92
49759;BME280;35654;46.080;11.118;2023-03-18T09:00:24;99611.13;;;11.29;46.06
49759;BME280;35654;46.080;11.118;2023-03-18T09:02:49;99613.75;;;11.58;45.34
49759;BME280;35654;46.080;11.118;2023-03-18T09:05:15;99608.06;;;11.73;45.04
49759;BME280;35654;46.080;11.118;2023-03-18T09:07:42;99610.25;;;11.95;44.32
49759;BME280;35654;46.080;11.118;2023-03-18T09:10:08;99595.56;;;12.18;43.17
49759;BME280;35654;46.080;11.118;2023-03-18T09:12:33;99593.78;;;12.27;43.09
49759;BME280;35654;46.080;11.118;2023-03-18T09:14:59;99599.91;;;12.05;43.36
49759;BME280;35654;46.080;11.118;2023-03-18T09:17:26;99585.81;;;12.25;42.85
49759;BME280;35654;46.080;11.118;2023-03-18T09:19:51;99590.56;;;11.88;44.00
49759;BME280;35654;46.080;11.118;2023-03-18T09:22:16;99594.28;;;11.78;44.56
49759;BME280;35654;46.080;11.118;2023-03-18T09:24:42;99587.69;;;11.79;44.76
49759;BME280;35654;46.080;11.118;2023-03-18T09:27:07;99593.78;;;11.95;44.14
49759;BME280;35654;46.080;11.118;2023-03-18T09:29:32;99589.63;;;11.97;44.22
49759;BME280;35654;46.080;11.118;2023-03-18T09:31:57;99592.59;;;12.14;44.13
49759;BME280;35654;46.080;11.118;2023-03-18T09:34:24;99581.28;;;12.02;44.34
49759;BME280;35654;46.080;11.118;2023-03-18T09:36:49;99580.41;;;11.88;44.50
49759;BME280;35654;46.080;11.118;2023-03-18T09:39:18;99579.88;;;12.05;43.83
49759;BME280;35654;46.080;11.118;2023-03-18T09:44:13;99561.09;;;12.58;42.96
49759;BME280;35654;46.080;11.118;2023-03-18T09:46:47;99565.19;;;12.88;42.00
49759;BME280;35654;46.080;11.118;2023-03-18T09:49:37;99562.38;;;13.20;41.05
49759;BME280;35654;46.080;11.118;2023-03-18T09:54:58;99555.41;;;13.72;39.93
49759;BME280;35654;46.080;11.118;2023-03-18T09:57:28;99551.97;;;13.66;39.78
49759;BME280;35654;46.080;11.118;2023-03-18T10:02:39;99539.72;;;13.72;39.60
49759;BME280;35654;46.080;11.118;2023-03-18T10:05:12;99537.47;;;13.74;39.35
49759;BME280;35654;46.080;11.118;2023-03-18T10:07:39;99534.56;;;13.79;39.42
49759;BME280;35654;46.080;11.118;2023-03-18T10:10:19;99531.28;;;13.91;39.22
49759;BME280;35654;46.080;11.118;2023-03-18T10:12:47;99524.50;;;13.75;39.60
49759;BME280;35654;46.080;11.118;2023-03-18T10:15:20;99522.19;;;13.90;39.52
49759;BME280;35654;46.080;11.118;2023-03-18T10:17:55;99519.31;;;14.18;39.20
49759;BME280;35654;46.080;11.118;2023-03-18T10:20:27;99520.78;;;14.24;39.17
49759;BME280;35654;46.080;11.118;2023-03-18T10:38:24;99496.22;;;21.01;28.21
49759;BME280;35654;46.080;11.118;2023-03-18T10:40:51;99483.63;;;22.57;25.34
49759;BME280;35654;46.080;11.118;2023-03-18T10:43:30;99478.97;;;24.29;23.47
49759;BME280;35654;46.080;11.118;2023-03-18T10:46:00;99479.84;;;25.24;22.05
49759;BME280;35654;46.080;11.118;2023-03-18T10:48:27;99475.41;;;25.16;21.45
49759;BME280;35654;46.080;11.118;2023-03-18T10:51:06;99472.09;;;25.62;21.07
49759;BME280;35654;46.080;11.118;2023-03-18T10:53:36;99474.38;;;25.42;20.93
49759;BME280;35654;46.080;11.118;2023-03-18T10:56:07;99461.88;;;26.12;20.61
49759;BME280;35654;46.080;11.118;2023-03-18T10:58:33;99451.59;;;26.76;20.31
49759;BME280;35654;46.080;11.118;2023-03-18T11:00:58;99449.97;;;26.53;19.78
49759;BME280;35654;46.080;11.118;2023-03-18T11:03:31;99444.00;;;26.80;19.73
49759;BME280;35654;46.080;11.118;2023-03-18T11:05:58;99444.09;;;25.72;20.01
49759;BME280;35654;46.080;11.118;2023-03-18T11:08:32;99440.16;;;25.87;20.15
49759;BME280;35654;46.080;11.118;2023-03-18T11:11:01;99430.66;;;27.40;19.11
49759;BME280;35654;46.080;11.118;2023-03-18T11:13:37;99434.31;;;27.41;19.04
49759;BME280;35654;46.080;11.118;2023-03-18T11:16:03;99433.19;;;28.14;18.34
49759;BME280;35654;46.080;11.118;2023-03-18T11:18:28;99423.13;;;26.84;19.26
49759;BME280;35654;46.080;11.118;2023-03-18T11:20:57;99417.13;;;26.82;19.25
49759;BME280;35654;46.080;11.118;2023-03-18T11:23:34;99420.28;;;26.49;19.46
49759;BME280;35654;46.080;11.118;2023-03-18T11:26:25;99420.94;;;25.96;19.86
49759;BME280;35654;46.080;11.118;2023-03-18T11:28:58;99415.78;;;27.40;18.79
49759;BME280;35654;46.080;11.118;2023-03-18T11:31:24;99409.78;;;27.45;18.51
49759;BME280;35654;46.080;11.118;2023-03-18T11:33:49;99406.16;;;27.37;18.41
49759;BME280;35654;46.080;11.118;2023-03-18T11:36:22;99403.00;;;28.22;17.72
49759;BME280;35654;46.080;11.118;2023-03-18T11:38:57;99394.22;;;27.05;18.69
49759;BME280;35654;46.080;11.118;2023-03-18T11:41:24;99395.69;;;25.93;19.02
49759;BME280;35654;46.080;11.118;2023-03-18T11:44:00;99382.47;;;26.00;19.57
49759;BME280;35654;46.080;11.118;2023-03-18T11:46:44;99376.94;;;26.60;18.44
49759;BME280;35654;46.080;11.118;2023-03-18T11:49:12;99379.38;;;26.87;18.65
49759;BME280;35654;46.080;11.118;2023-03-18T11:51:41;99378.16;;;26.91;18.45
49759;BME280;35654;46.080;11.118;2023-03-18T11:57:14;99366.94;;;26.81;18.96
49759;BME280;35654;46.080;11.118;2023-03-18T12:05:23;99357.06;;;28.32;17.55
49759;BME280;35654;46.080;11.118;2023-03-18T12:10:30;99340.06;;;26.27;19.06
49759;BME280;35654;46.080;11.118;2023-03-18T12:18:18;99339.13;;;28.60;16.88
49759;BME280;35654;46.080;11.118;2023-03-18T12:20:50;99344.28;;;27.48;17.98
49759;BME280;35654;46.080;11.118;2023-03-18T12:23:21;99334.66;;;29.07;16.75
49759;BME280;35654;46.080;11.118;2023-03-18T12:28:24;99327.22;;;27.83;17.51
49759;BME280;35654;46.080;11.118;2023-03-18T12:30:55;99322.22;;;28.12;17.12
49759;BME280;35654;46.080;11.118;2023-03-18T12:43:37;99307.09;;;29.21;16.27
49759;BME280;35654;46.080;11.118;2023-03-18T12:48:49;99297.81;;;33.09;12.84
49759;BME280;35654;46.080;11.118;2023-03-18T12:51:21;99300.06;;;32.24;13.64
49759;BME280;35654;46.080;11.118;2023-03-18T12:53:51;99292.81;;;29.96;15.18
49759;BME280;35654;46.080;11.118;2023-03-18T12:56:18;99307.09;;;29.25;16.22
49759;BME280;35654;46.080;11.118;2023-03-18T12:58:53;99303.22;;;29.08;16.09
49759;BME280;35654;46.080;11.118;2023-03-18T13:01:20;99286.66;;;30.28;15.19
49759;BME280;35654;46.080;11.118;2023-03-18T13:03:50;99282.31;;;29.70;15.46
49759;BME280;35654;46.080;11.118;2023-03-18T13:08:48;99278.28;;;26.16;18.26
49759;BME280;35654;46.080;11.118;2023-03-18T13:13:41;99281.34;;;28.45;16.74
49759;BME280;35654;46.080;11.118;2023-03-18T13:16:09;99272.50;;;25.38;19.00
49759;BME280;35654;46.080;11.118;2023-03-18T13:18:39;99269.84;;;25.88;18.40
49759;BME280;35654;46.080;11.118;2023-03-18T13:21:07;99264.06;;;25.24;18.55
49759;BME280;35654;46.080;11.118;2023-03-18T13:44:02;99255.94;;;23.86;20.28
49759;BME280;35654;46.080;11.118;2023-03-18T13:46:30;99253.19;;;22.82;21.79
49759;BME280;35654;46.080;11.118;2023-03-18T13:48:57;99251.28;;;23.23;21.72
49759;BME280;35654;46.080;11.118;2023-03-18T13:53:49;99253.22;;;22.86;22.02
49759;BME280;35654;46.080;11.118;2023-03-18T13:58:51;99232.44;;;25.27;19.75
49759;BME280;35654;46.080;11.118;2023-03-18T14:11:48;99237.63;;;21.57;23.04
49759;BME280;35654;46.080;11.118;2023-03-18T14:16:59;99228.25;;;23.70;21.32
49759;BME280;35654;46.080;11.118;2023-03-18T14:19:25;99235.81;;;22.40;22.60
49759;BME280;35654;46.080;11.118;2023-03-18T14:22:06;99238.47;;;22.85;21.97
49759;BME280;35654;46.080;11.118;2023-03-18T14:24:32;99233.78;;;24.72;20.50
49759;BME280;35654;46.080;11.118;2023-03-18T14:29:44;99222.66;;;24.14;21.31
49759;BME280;35654;46.080;11.118;2023-03-18T14:37:27;99231.78;;;24.69;20.65
49759;BME280;35654;46.080;11.118;2023-03-18T14:40:15;99216.63;;;23.28;21.44
49759;BME280;35654;46.080;11.118;2023-03-18T14:42:59;99223.44;;;22.97;21.96
49759;BME280;35654;46.080;11.118;2023-03-18T14:45:43;99220.38;;;23.83;21.51
49759;BME280;35654;46.080;11.118;2023-03-18T14:48:19;99214.44;;;24.46;20.80
49759;BME280;35654;46.080;11.118;2023-03-18T14:50:49;99233.97;;;23.88;21.04
49759;BME280;35654;46.080;11.118;2023-03-18T14:53:32;99216.34;;;25.00;20.43
49759;BME280;35654;46.080;11.118;2023-03-18T14:55:58;99228.03;;;23.15;22.20
49759;BME280;35654;46.080;11.118;2023-03-18T14:58:24;99214.72;;;24.26;21.44